»·PEaware :: AAL1282 KSFO-KPDX

AAL1282 :: KSFO-KPDX

FLIGHT INFORMATION

Flight Status: Arrived
Operator:
American Airlines
More flights by this operator :: More flights under this callsign
Pilot: Dave P. (45)
Aircraft: BOEING 737-800
(B738)
More flights by this aircraft type
Origin: KSFO San Francisco Intl
United States
Destination: KPDX Portland Intl
United States
More flights between these airports :: More routes between these airports
Route: +TRUKN2 GRTFL MACHU TMBRS2
File this flight plan on PilotEdge
Remarks: PBN / A1B1C1D1S1S2 DOF / 181111 REG / N738PM EET / KZSE0038 OPR / AAL PER / D RMK / TCAS SIMBRIEF
Altitude:
(Current/Filed)
34,000ft
Speed:
(Current/Filed)
455kts
Departed: 11-Nov-18 12:18 PM
Arrived: 11-Nov-18 01:45 PM
Distance/Time
Traveled:
478nm/1:27
Distance/Time
To Go:
Arrived

Flight Plot

Page will automatically refresh every two minutes.


Map Options




Map Legend


Flown Route
Filed Route
Departure Airport
Arrival Airport
Navaid (VOR, NDB)
Fix

Horizontal Profiles

Position Reports

Time Latitude Longitude Heading Altitude Ground
Speed
11-Nov-18 11:55 37.616734 -122.380504 301 21ft 0kts
11-Nov-18 11:56 37.616734 -122.380504 301 21ft 0kts
11-Nov-18 11:57 37.616734 -122.380504 301 21ft 0kts
11-Nov-18 11:58 37.616734 -122.380504 301 21ft 0kts
11-Nov-18 11:59 37.616734 -122.380504 301 21ft 0kts
11-Nov-18 12:00 37.616734 -122.380504 301 21ft 0kts
11-Nov-18 12:01 37.616734 -122.380504 301 21ft 0kts
11-Nov-18 12:02 37.616734 -122.380504 301 21ft 0kts
11-Nov-18 12:03 37.616734 -122.380504 301 21ft 0kts
11-Nov-18 12:04 37.616734 -122.380504 301 21ft 0kts
11-Nov-18 12:05 37.616734 -122.380504 301 21ft 0kts
11-Nov-18 12:06 37.616734 -122.380504 301 21ft 0kts
11-Nov-18 12:07 37.616734 -122.380504 301 21ft 0kts
11-Nov-18 12:08 37.616734 -122.380504 301 21ft 0kts
11-Nov-18 12:09 37.616734 -122.380504 301 21ft 0kts
11-Nov-18 12:10 37.616734 -122.380504 301 21ft 0kts
11-Nov-18 12:11 37.616641 -122.380273 287 21ft 2kts
11-Nov-18 12:12 37.616796 -122.379468 227 21ft 0kts
11-Nov-18 12:13 37.616796 -122.379468 227 21ft 0kts
11-Nov-18 12:14 37.616563 -122.379679 208 21ft 8kts
11-Nov-18 12:15 37.613051 -122.382011 207 21ft 18kts
11-Nov-18 12:16 37.610402 -122.383781 208 21ft 0kts
11-Nov-18 12:17 37.610177 -122.383969 221 21ft 10kts
11-Nov-18 12:18 37.606086 -122.383803 128 21ft 15kts
11-Nov-18 12:19 37.606803 -122.381734 122 21ft 0kts
11-Nov-18 12:20 37.606700 -122.380763 27 21ft 5kts
11-Nov-18 12:21 37.623648 -122.369669 27 132ft 158kts
11-Nov-18 12:22 37.655807 -122.329545 55 2389ft 192kts
11-Nov-18 12:23 37.692097 -122.263694 55 4659ft 250kts
11-Nov-18 12:24 37.749974 -122.218714 5 7787ft 270kts
11-Nov-18 12:25 37.827077 -122.218308 0 10898ft 281kts
11-Nov-18 12:26 37.914140 -122.220054 358 12420ft 342kts
11-Nov-18 12:27 38.011527 -122.222467 358 15086ft 357kts
11-Nov-18 12:28 38.112959 -122.225080 357 17701ft 371kts
11-Nov-18 12:29 38.217795 -122.227866 357 20163ft 382kts
11-Nov-18 12:30 38.325552 -122.230752 357 22404ft 391kts
11-Nov-18 12:31 38.435650 -122.239170 354 24377ft 400kts
11-Nov-18 12:32 38.547399 -122.251387 353 26180ft 407kts
11-Nov-18 12:33 38.661290 -122.263513 353 27726ft 415kts
11-Nov-18 12:34 38.777367 -122.275711 353 29175ft 420kts
11-Nov-18 12:35 38.892802 -122.287834 353 30993ft 413kts
11-Nov-18 12:36 39.006425 -122.299795 353 32646ft 406kts
11-Nov-18 12:37 39.118457 -122.311627 353 34118ft 402kts
11-Nov-18 12:38 39.230799 -122.323528 353 34215ft 402kts
11-Nov-18 12:39 39.341944 -122.335340 353 34232ft 400kts
11-Nov-18 12:40 39.453065 -122.347186 353 34237ft 400kts
11-Nov-18 12:41 39.563940 -122.359044 353 34248ft 399kts
11-Nov-18 12:42 39.674708 -122.370929 353 34259ft 399kts
11-Nov-18 12:43 39.785369 -122.382841 353 34265ft 398kts
11-Nov-18 12:44 39.895886 -122.394775 353 34272ft 398kts
11-Nov-18 12:45 40.006199 -122.406726 353 34276ft 398kts
11-Nov-18 12:46 40.116697 -122.418737 353 34278ft 398kts
11-Nov-18 12:47 40.227282 -122.430795 353 34280ft 398kts
11-Nov-18 12:48 40.337466 -122.442850 353 34280ft 398kts
11-Nov-18 12:49 40.447904 -122.454972 353 34281ft 398kts
11-Nov-18 12:50 40.558499 -122.467152 353 34283ft 398kts
11-Nov-18 12:51 40.668887 -122.479349 354 34288ft 398kts
11-Nov-18 12:52 40.779095 -122.491567 354 34296ft 398kts
11-Nov-18 12:53 40.889325 -122.503827 354 34309ft 397kts
11-Nov-18 12:54 40.999831 -122.516161 354 34323ft 397kts
11-Nov-18 12:55 41.109847 -122.528480 354 34339ft 397kts
11-Nov-18 12:56 41.219812 -122.540819 354 34355ft 397kts
11-Nov-18 12:57 41.329692 -122.553192 354 34362ft 395kts
11-Nov-18 12:58 41.439757 -122.565665 354 34377ft 395kts
11-Nov-18 12:59 41.549200 -122.577408 356 34390ft 394kts
11-Nov-18 13:00 41.658757 -122.584195 357 34407ft 394kts
11-Nov-18 13:01 41.768746 -122.591258 357 34415ft 394kts
11-Nov-18 13:02 41.877834 -122.598343 357 34415ft 393kts
11-Nov-18 13:03 41.987189 -122.605501 357 34405ft 393kts
11-Nov-18 13:04 42.096336 -122.612701 357 34391ft 391kts
11-Nov-18 13:05 42.205145 -122.619911 357 34372ft 391kts
11-Nov-18 13:06 42.313941 -122.627170 357 34358ft 391kts
11-Nov-18 13:07 42.422598 -122.634450 357 34353ft 390kts
11-Nov-18 13:08 42.530962 -122.641716 357 34353ft 390kts
11-Nov-18 13:09 42.639621 -122.648998 357 34358ft 390kts
11-Nov-18 13:10 42.747680 -122.656310 357 34366ft 389kts
11-Nov-18 13:11 42.855853 -122.663656 357 34371ft 388kts
11-Nov-18 13:12 42.963863 -122.671013 357 34376ft 388kts
11-Nov-18 13:13 43.071347 -122.678367 357 34379ft 387kts
11-Nov-18 13:14 43.179012 -122.685710 357 34383ft 386kts
11-Nov-18 13:15 43.285889 -122.693072 357 34393ft 385kts
11-Nov-18 13:16 43.392716 -122.700458 357 34397ft 384kts
11-Nov-18 13:17 43.498297 -122.718207 355 34392ft 383kts
11-Nov-18 13:18 43.604655 -122.724395 357 34380ft 382kts
11-Nov-18 13:19 43.710927 -122.729969 357 34384ft 381kts
11-Nov-18 13:20 43.817037 -122.735561 357 34278ft 380kts
11-Nov-18 13:21 43.921807 -122.741057 357 31753ft 378kts
11-Nov-18 13:22 44.025411 -122.746555 357 29724ft 366kts
11-Nov-18 13:23 44.126012 -122.751915 357 27801ft 357kts
11-Nov-18 13:24 44.224586 -122.746776 2 25911ft 353kts
11-Nov-18 13:25 44.322573 -122.736396 2 24019ft 352kts
11-Nov-18 13:26 44.419881 -122.726608 2 22145ft 350kts
11-Nov-18 13:27 44.516849 -122.716946 2 20277ft 347kts
11-Nov-18 13:28 44.609740 -122.707695 2 19283ft 323kts
11-Nov-18 13:29 44.698779 -122.698758 2 17870ft 316kts
11-Nov-18 13:30 44.785918 -122.689975 3 16470ft 311kts
11-Nov-18 13:31 44.871517 -122.681369 3 15135ft 306kts
11-Nov-18 13:32 44.954203 -122.673021 3 14438ft 279kts
11-Nov-18 13:33 45.030979 -122.665264 4 12795ft 274kts
11-Nov-18 13:34 45.106434 -122.657594 4 11076ft 274kts
11-Nov-18 13:35 45.183453 -122.649728 5 9999ft 275kts
11-Nov-18 13:36 45.260452 -122.649859 347 8827ft 277kts
11-Nov-18 13:37 45.332152 -122.688182 341 7824ft 273kts
11-Nov-18 13:38 45.402416 -122.726809 341 6785ft 267kts
11-Nov-18 13:39 45.466257 -122.761872 342 6329ft 217kts
11-Nov-18 13:40 45.518642 -122.790729 343 5383ft 197kts
11-Nov-18 13:41 45.567402 -122.826242 335 4356ft 195kts
11-Nov-18 13:42 45.616156 -122.856805 354 3103ft 187kts
11-Nov-18 13:43 45.663188 -122.850750 37 2582ft 164kts
11-Nov-18 13:44 45.660547 -122.791805 113 2544ft 167kts
11-Nov-18 13:45 45.638457 -122.732916 116 1763ft 165kts
11-Nov-18 13:46 45.617259 -122.678366 117 946ft 146kts
11-Nov-18 13:47 45.598117 -122.629175 116 181ft 139kts
11-Nov-18 13:48 45.587677 -122.601369 66 38ft 11kts
11-Nov-18 13:49 45.587911 -122.600721 62 38ft 3kts
11-Nov-18 13:50 45.587256 -122.597878 113 38ft 9kts
11-Nov-18 13:51 45.588603 -122.596409 31 38ft 0kts
11-Nov-18 13:52 45.588603 -122.596409 31 38ft 0kts
11-Nov-18 13:53 45.588603 -122.596409 31 38ft 0kts
11-Nov-18 13:54 45.588603 -122.596409 31 38ft 0kts

Navigation Log

Ident Type
Flight plan parsing failed, navigation log unavailable